AirNav   MODERNIZE NOT PRIVATIZE ATC
 
 1604 users online  

50TS TJ-CJ Private Heliport
San Antonio, Texas, USA

GOING TO SAN ANTONIO?


FAA INFORMATION EFFECTIVE 20 JULY 2017

Location

FAA Identifier: 50TS
Lat/Long: 29-27-38.8360N / 098-19-50.0470W
29-27.647267N / 098-19.834117W
29.4607878 / -98.3305686
(estimated)
Elevation: 630 ft. / 192 m (estimated)
Variation: 08E (1980)
From city: 3 miles W of SAN ANTONIO, TX
Time zone: UTC -5 (UTC -6 during Standard Time)
Zip code: 78109

Heliport Operations

Heliport use: Private use. Permission required prior to landing
Activation date: 11/1986
Control tower: no
ARTCC: HOUSTON CENTER
FSS: SAN ANGELO FLIGHT SERVICE STATION
Attendance: DAYLIGHT HOURS
Wind indicator: yes
Segmented circle: no

Heliport Communications

WX ASOS at SAT (8 nm NW): PHONE 210-805-5583
WX ASOS at SSF (10 nm SW): PHONE 210-927-9391

Nearby radio navigation aids

VOR radial/distance  VOR name  Freq  Var
RNDr209/4.2RANDOLPH VORTAC112.3005E
SATr140/12.9SAN ANTONIO VORTAC116.8008E
SSFr017/(13.5)STINSON VOR108.4009E

 
NDB name  Hdg/Dist  Freq  Var  ID
DEVINE052/37.335907EHHH .... .... ....

Heliport Services

Fuel available: 100LL

Runway Information

Helipad H1

Dimensions: 900 x 250 ft. / 274 x 76 m
Surface: concrete/turf
Traffic pattern: leftleft

Heliport Ownership and Management from official FAA records

Ownership: Privately-owned
Owner: TIMOTHY ELGENE JOHNSON
8059 IH 10 EAST
CONVERSE, TX 78109
Phone 210-384-2837
Manager: TIMOTHY E JOHNSON
8059 IH 10 EAST
SAN ANTONIO, TX 78109
Phone 210-384-2837

Heliport Operational Statistics

Aircraft based on the field: 1
Helicopters: 1
    

Instrument Procedures

There are no published instrument procedures at 50TS.

Some nearby airports with instrument procedures:

KRND - Randolph Air Force Base (5 nm NE)
KSAT - San Antonio International Airport (8 nm NW)
KSSF - Stinson Municipal Airport (10 nm SW)
KSKF - Kelly Field Airport (14 nm W)
KBAZ - New Braunfels Regional Airport (21 nm NE)
 
Loc | Ops | Rwys | IFR | FBO | Links
Com | Nav | Svcs | Stats | Notes


 
Area around 50TS (TJ-CJ Private Heliport)
 
Road maps at: MapQuest Bing Google
 
Aerial photo
No photo
 
Sectional chart

 
Airport distance calculator
Flying to TJ-CJ Private Heliport? Find the distance to fly.

From to 50TS

Sunrise and sunset
Times for 26-Jul-2017
 Local
(UTC-5)
 Zulu
(UTC)
Morning civil twilight06:2511:25
Sunrise06:5111:51
Sunset20:2901:29
Evening civil twilight20:5501:55

Current date and time
Zulu (UTC)  26-Jul-2017 20:31:00
Local (UTC-5)  26-Jul-2017 15:31:00
 
METAR
KRND 
5nm NE 
261956Z AUTO 17009G18KT 10SM SCT065 36/17 A3003 RMK AO2 SLP160 T03610172
KSAT 
8nm NW 
261951Z 15009G16KT 10SM SCT065 SCT250 36/18 A3004 RMK AO2 SLP152 T03560178
KSSF 
10nm SW 
261953Z 16010KT 10SM BKN070 37/18 A3001 RMK AO2 SLP146 T03720178
KSKF 
14nm SW 
261958Z 17008KT 10SM SCT060 37/19 A3001 RMK AO2A SLP153 T03710186 $
TAF
KRND 
5nm NE 
261700Z 2617/2723 17012G18KT 9999 FEW060 SCT180 QNH2995INS TEMPO 2700/2703 16020G25KT BECMG 2702/2703 17009KT 9999 FEW020 QNH3002INS BECMG 2714/2715 18010G15KT 9999 SKC QNH2992INS TX37/2621Z TN23/2712Z LAST NO AMDS AFT 2700 NEXT 2709
KSAT 
8nm NW 
261737Z 2618/2724 18014KT P6SM FEW050 FEW250 FM262100 15014KT P6SM SCT060 SCT250 FM270900 17007KT P6SM SCT012 FM271400 18009KT P6SM SCT030 SCT250
KSSF 
10nm SW 
261737Z 2618/2718 17012KT P6SM FEW050 FEW250 FM262100 14013KT P6SM SCT060 SCT250 FM270900 17007KT P6SM SCT012 FM271400 18009KT P6SM SCT030 SCT250
KSKF 
14nm SW 
261000Z 2610/2716 16006KT 9999 SCT015 QNH3002INS TEMPO 2610/2614 BKN012 BECMG 2614/2615 17012KT 9999 SCT060 QNH2994INS BECMG 2701/2702 16015G25KT 9999 SCT060 QNH2999INS BECMG 2714/2715 18010G15KT 9999 SCT015 QNH3004INS TX37/2621Z TN24/2612Z
NOTAMs
Click for the latest NOTAMs
NOTAMs are issued by the DoD/FAA and will open in a separate window not controlled by AirNav.

 

 
 

Would you like to see your business listed on this page?

 If your business provides an interesting product or service to pilots, flight crews, aircraft, or users of the TJ-CJ Private Heliport, you should consider listing it here.  To start the listing process, click on the button below
 
Add a business
 

Other Pages about TJ-CJ Private Heliport

Update a link
 
Copyright © AirNav, LLC. All rights reserved. Privacy Policy  Contact